Time;durP1;ratioP1;P1;durP2;ratioP2;P2;SDS_P1;SDS_P2;PMS_P1;PMS_P2;Temp;Humidity;BMP_temperature;BMP_pressure;BME280_temperature;BME280_humidity;BME280_pressure;Samples;Min_cycle;Max_cycle;Signal;HPM_P1;HPM_P2
2023/03/15 00:00:27;;;;;;;10.88;1.50;;;5.40;99.90;;;;;;5058657;28;20028;-66
2023/03/15 00:02:52;;;;;;;9.90;1.70;;;5.30;99.90;;;;;;5058902;28;20029;-66
2023/03/15 00:05:18;;;;;;;6.63;2.10;;;5.30;99.90;;;;;;5058597;28;20032;-66
2023/03/15 00:07:43;;;;;;;6.28;1.40;;;5.30;99.90;;;;;;5059511;28;20021;-66
2023/03/15 00:10:10;;;;;;;3.78;1.50;;;5.20;99.90;;;;;;5058771;28;20063;-66
2023/03/15 00:12:35;;;;;;;12.88;1.98;;;5.20;99.90;;;;;;5058501;28;20047;-66
2023/03/15 00:15:01;;;;;;;7.30;1.75;;;5.20;99.90;;;;;;5058391;28;20025;-66
2023/03/15 00:17:26;;;;;;;11.88;1.90;;;5.20;99.90;;;;;;5058450;28;20067;-66
2023/03/15 00:19:52;;;;;;;11.27;2.00;;;5.10;99.90;;;;;;5058402;28;20021;-66
2023/03/15 00:22:17;;;;;;;3.55;1.15;;;5.00;99.90;;;;;;5058305;28;20029;-66
2023/03/15 00:24:43;;;;;;;13.25;1.60;;;5.00;99.90;;;;;;5059189;28;20082;-66
2023/03/15 00:27:08;;;;;;;10.35;1.83;;;5.00;99.90;;;;;;5058267;28;20017;-65
2023/03/15 00:29:34;;;;;;;8.20;1.80;;;5.00;99.90;;;;;;5059079;28;20024;-65
2023/03/15 00:31:59;;;;;;;9.95;1.60;;;5.00;99.90;;;;;;5058361;28;20074;-66
2023/03/15 00:34:25;;;;;;;18.23;2.33;;;4.90;99.90;;;;;;5059013;28;20029;-66
2023/03/15 00:36:52;;;;;;;12.75;2.35;;;4.90;99.90;;;;;;5057933;28;20033;-66
2023/03/15 00:39:18;;;;;;;4.45;1.45;;;4.90;99.90;;;;;;5058275;28;20036;-66
2023/03/15 00:41:44;;;;;;;8.68;2.30;;;4.80;99.90;;;;;;5058329;28;20021;-66
2023/03/15 00:44:10;;;;;;;13.95;1.92;;;4.70;99.90;;;;;;5058814;28;20108;-63
2023/03/15 00:46:36;;;;;;;7.72;1.58;;;4.70;99.90;;;;;;5058390;28;20108;-66
2023/03/15 00:49:02;;;;;;;8.10;2.20;;;4.80;99.90;;;;;;5058336;28;20017;-66
2023/03/15 00:51:28;;;;;;;9.43;2.22;;;5.00;99.90;;;;;;5058871;28;20071;-63
2023/03/15 00:53:54;;;;;;;6.25;1.67;;;5.10;99.90;;;;;;5058228;28;20013;-70
2023/03/15 00:56:23;;;;;;;9.27;1.65;;;5.10;99.90;;;;;;5057667;28;20028;-70
2023/03/15 00:58:51;;;;;;;7.80;1.58;;;5.10;99.90;;;;;;5057654;28;20029;-72
2023/03/15 01:01:20;;;;;;;5.13;1.00;;;5.10;99.90;;;;;;5059534;28;20017;-65
2023/03/15 01:03:46;;;;;;;11.23;2.05;;;5.10;99.90;;;;;;5057520;28;20025;-65
2023/03/15 01:06:21;;;;;;;6.65;1.20;;;5.10;99.90;;;;;;5057260;28;20025;-65
2023/03/15 01:08:46;;;;;;;9.75;1.92;;;5.00;99.90;;;;;;5057999;28;20056;-65
2023/03/15 01:11:18;;;;;;;10.43;1.90;;;4.90;99.90;;;;;;5057439;28;20024;-65
2023/03/15 01:13:44;;;;;;;7.30;1.65;;;4.90;99.90;;;;;;5058291;28;20021;-65
2023/03/15 01:16:12;;;;;;;9.15;1.60;;;4.90;99.90;;;;;;5058409;28;20043;-65
2023/03/15 01:18:38;;;;;;;8.40;1.90;;;5.10;99.90;;;;;;5058031;28;20114;-65
2023/03/15 01:21:09;;;;;;;5.20;1.55;;;5.10;99.90;;;;;;5058004;28;20052;-65
2023/03/15 01:23:34;;;;;;;10.03;1.73;;;5.10;99.90;;;;;;5057780;28;20036;-65
2023/03/15 01:26:01;;;;;;;8.10;1.10;;;5.20;99.90;;;;;;5056988;28;20025;-65
2023/03/15 01:28:27;;;;;;;15.85;2.25;;;5.10;99.90;;;;;;5057440;28;20108;-65
2023/03/15 01:30:52;;;;;;;12.10;1.77;;;5.10;99.90;;;;;;5057832;28;20052;-65
2023/03/15 01:33:19;;;;;;;8.18;1.48;;;5.10;99.90;;;;;;5057546;28;20033;-65
2023/03/15 01:35:44;;;;;;;5.05;1.58;;;5.10;99.90;;;;;;5057858;28;20097;-65
2023/03/15 01:38:11;;;;;;;12.27;1.73;;;5.00;99.90;;;;;;5056778;28;20060;-65
2023/03/15 01:40:44;;;;;;;5.03;1.52;;;5.00;99.90;;;;;;5056301;28;20028;-65
2023/03/15 01:43:21;;;;;;;9.93;2.15;;;5.00;99.90;;;;;;5057477;28;20025;-65
2023/03/15 01:46:11;;;;;;;6.30;1.98;;;5.00;99.90;;;;;;5056580;28;20025;-65
2023/03/15 01:48:38;;;;;;;8.25;1.35;;;5.00;99.90;;;;;;5056695;28;20024;-65
2023/03/15 01:51:17;;;;;;;5.43;1.77;;;5.00;99.90;;;;;;5056404;28;20021;-64
2023/03/15 01:53:47;;;;;;;4.65;1.30;;;4.90;99.90;;;;;;5057449;28;20025;-64
2023/03/15 01:56:14;;;;;;;11.98;1.60;;;4.80;99.90;;;;;;5057100;28;20055;-64
2023/03/15 01:58:42;;;;;;;5.60;1.92;;;4.80;99.90;;;;;;5057642;28;20093;-64
2023/03/15 02:01:08;;;;;;;6.88;1.95;;;4.70;99.90;;;;;;5057317;28;20119;-64
2023/03/15 02:03:38;;;;;;;12.70;2.33;;;4.70;99.90;;;;;;5056382;28;20074;-64
2023/03/15 02:06:08;;;;;;;10.00;1.80;;;4.60;99.90;;;;;;5056484;28;20029;-64
2023/03/15 02:08:41;;;;;;;6.57;2.70;;;4.60;99.90;;;;;;5056362;28;20017;-64
2023/03/15 02:11:06;;;;;;;8.93;1.85;;;4.30;99.90;;;;;;5056403;28;20021;-65
2023/03/15 02:13:33;;;;;;;7.15;1.38;;;4.20;99.90;;;;;;5056669;28;20032;-64
2023/03/15 02:15:59;;;;;;;13.35;2.35;;;4.00;99.90;;;;;;5056542;28;20028;-64
2023/03/15 02:18:25;;;;;;;14.52;2.13;;;4.00;99.90;;;;;;5056942;28;20028;-64
2023/03/15 02:21:13;;;;;;;5.72;1.30;;;4.00;99.90;;;;;;5056768;28;20025;-64
2023/03/15 02:23:39;;;;;;;13.02;1.60;;;4.00;99.90;;;;;;5057057;28;20111;-64
2023/03/15 02:26:30;;;;;;;4.95;1.02;;;3.90;99.90;;;;;;5055980;28;20139;-63
2023/03/15 02:28:55;;;;;;;12.32;1.80;;;4.00;99.90;;;;;;5056527;28;20032;-64
2023/03/15 02:31:21;;;;;;;6.75;1.75;;;4.00;99.90;;;;;;5057182;28;20021;-64
2023/03/15 02:33:50;;;;;;;5.68;1.70;;;3.90;99.90;;;;;;5056080;28;20028;-64
2023/03/15 02:36:25;;;;;;;9.48;1.80;;;4.00;99.90;;;;;;5068809;28;20119;-64
2023/03/15 02:38:52;;;;;;;12.48;2.08;;;3.90;99.90;;;;;;5076799;28;20059;-63
2023/03/15 02:41:22;;;;;;;4.28;1.15;;;3.80;99.90;;;;;;5076023;28;20120;-71
2023/03/15 02:43:51;;;;;;;16.05;2.33;;;3.80;99.90;;;;;;5076794;28;20024;-71
2023/03/15 02:46:17;;;;;;;7.15;1.38;;;3.90;99.90;;;;;;5075836;28;20029;-71
2023/03/15 02:48:45;;;;;;;6.32;1.20;;;3.80;99.90;;;;;;5075878;28;20024;-71
2023/03/15 02:51:23;;;;;;;4.97;1.58;;;3.90;99.90;;;;;;5075914;28;20024;-71
2023/03/15 02:53:48;;;;;;;5.45;1.52;;;4.10;99.90;;;;;;5080554;28;20020;-71
2023/03/15 02:56:15;;;;;;;5.15;1.10;;;4.20;99.90;;;;;;5079835;28;20028;-70
2023/03/15 02:58:44;;;;;;;4.68;1.42;;;4.30;99.90;;;;;;5080005;28;20086;-71
2023/03/15 03:01:12;;;;;;;5.10;1.48;;;4.30;99.90;;;;;;5079788;28;20028;-70
2023/03/15 03:03:38;;;;;;;5.35;1.50;;;4.30;99.90;;;;;;5079945;28;20020;-71
2023/03/15 03:06:04;;;;;;;10.75;1.67;;;4.40;99.90;;;;;;5080234;28;20033;-70
2023/03/15 03:08:29;;;;;;;8.85;1.63;;;4.40;99.90;;;;;;5079687;28;20142;-72
2023/03/15 03:10:55;;;;;;;9.60;2.10;;;4.40;99.90;;;;;;5080026;28;20021;-71
2023/03/15 03:13:20;;;;;;;8.68;1.38;;;4.20;99.90;;;;;;5080621;28;20025;-71
2023/03/15 03:15:48;;;;;;;8.57;1.90;;;4.20;99.90;;;;;;5079600;28;20017;-71
2023/03/15 03:18:14;;;;;;;7.07;1.25;;;4.00;99.90;;;;;;5079692;28;20035;-71
2023/03/15 03:20:40;;;;;;;3.70;1.30;;;4.10;99.90;;;;;;5079498;28;20025;-71
2023/03/15 03:23:05;;;;;;;8.88;1.48;;;3.90;99.90;;;;;;5080198;28;20064;-71
2023/03/15 03:25:32;;;;;;;5.88;1.30;;;4.10;99.90;;;;;;5079524;28;20054;-71
2023/03/15 03:27:57;;;;;;;7.07;3.13;;;4.00;99.90;;;;;;5079606;28;20048;-71
2023/03/15 03:30:24;;;;;;;6.53;1.65;;;4.20;99.90;;;;;;5080128;28;20051;-71
2023/03/15 03:32:50;;;;;;;14.60;2.33;;;4.40;99.90;;;;;;5079151;28;20021;-71
2023/03/15 03:35:15;;;;;;;13.25;1.30;;;4.50;99.90;;;;;;5080335;28;20025;-71
2023/03/15 03:37:41;;;;;;;7.65;1.60;;;4.60;99.90;;;;;;5079800;28;20029;-71
2023/03/15 03:40:08;;;;;;;8.30;1.33;;;4.60;99.90;;;;;;5079085;28;20020;-71
2023/03/15 03:42:34;;;;;;;9.50;2.13;;;4.70;99.90;;;;;;5083868;28;20058;-71
2023/03/15 03:45:00;;;;;;;14.48;1.70;;;4.80;99.90;;;;;;5078719;28;20051;-72
2023/03/15 03:47:25;;;;;;;8.63;1.83;;;4.90;99.90;;;;;;5079620;28;20088;-71
2023/03/15 03:49:51;;;;;;;3.65;1.27;;;4.90;99.90;;;;;;5078915;28;20016;-71
2023/03/15 03:52:16;;;;;;;11.50;1.70;;;4.80;99.90;;;;;;5078819;28;20024;-71
2023/03/15 03:54:42;;;;;;;6.47;1.73;;;4.90;99.90;;;;;;5079932;28;20021;-71
2023/03/15 03:57:08;;;;;;;15.50;2.53;;;5.00;99.90;;;;;;5078817;28;20127;-71
2023/03/15 03:59:34;;;;;;;10.52;1.50;;;4.90;99.90;;;;;;5078710;28;20032;-71
2023/03/15 04:01:59;;;;;;;10.50;1.25;;;4.90;99.90;;;;;;5078876;28;20028;-71
2023/03/15 04:04:25;;;;;;;8.82;1.55;;;4.80;99.90;;;;;;5077980;28;20025;-71
2023/03/15 04:06:51;;;;;;;8.95;1.65;;;4.70;99.90;;;;;;5078333;28;20036;-71
2023/03/15 04:09:16;;;;;;;6.45;1.75;;;4.80;99.90;;;;;;5078781;28;20056;-71
2023/03/15 04:11:42;;;;;;;8.43;1.50;;;4.90;99.90;;;;;;5078564;28;20024;-72
2023/03/15 04:14:12;;;;;;;10.27;1.70;;;4.90;99.90;;;;;;5078427;28;20021;-71
2023/03/15 04:16:38;;;;;;;6.88;1.70;;;4.90;99.90;;;;;;5078434;28;20092;-71
2023/03/15 04:19:04;;;;;;;5.47;1.75;;;4.80;99.90;;;;;;5078434;28;20086;-67
2023/03/15 04:21:30;;;;;;;9.70;1.92;;;4.80;99.90;;;;;;5078489;28;20163;-67
2023/03/15 04:23:59;;;;;;;6.82;1.80;;;4.90;99.90;;;;;;5078196;28;20056;-67
2023/03/15 04:26:26;;;;;;;7.68;1.60;;;4.90;99.90;;;;;;5078249;28;20032;-67
2023/03/15 04:28:54;;;;;;;9.45;2.88;;;5.00;99.90;;;;;;5079029;28;20024;-67
2023/03/15 04:31:20;;;;;;;5.78;1.85;;;4.90;99.90;;;;;;5078341;28;20119;-67
2023/03/15 04:33:45;;;;;;;7.60;2.00;;;4.70;99.90;;;;;;5078489;28;20038;-67
2023/03/15 04:36:17;;;;;;;8.27;2.03;;;4.50;99.90;;;;;;5078086;28;20092;-67
2023/03/15 04:38:45;;;;;;;6.35;2.45;;;4.50;99.90;;;;;;5078992;28;20028;-67
2023/03/15 04:41:11;;;;;;;7.68;2.22;;;4.50;99.90;;;;;;5078861;28;20097;-67
2023/03/15 04:43:37;;;;;;;7.90;2.20;;;4.40;99.90;;;;;;5078402;28;20024;-67
2023/03/15 04:46:03;;;;;;;6.05;1.92;;;4.40;99.90;;;;;;5079008;28;20142;-67
2023/03/15 04:48:28;;;;;;;9.07;1.90;;;4.40;99.90;;;;;;5083128;28;20075;-71
2023/03/15 04:50:54;;;;;;;13.70;2.55;;;4.40;99.90;;;;;;5078087;28;20029;-71
2023/03/15 04:53:19;;;;;;;9.48;2.45;;;4.40;99.90;;;;;;5078003;28;20115;-71
2023/03/15 04:55:45;;;;;;;14.40;2.00;;;4.50;99.90;;;;;;5078071;28;20021;-71
2023/03/15 04:58:10;;;;;;;10.55;2.83;;;4.30;99.90;;;;;;5077916;28;20020;-71
2023/03/15 05:00:36;;;;;;;7.70;2.78;;;4.20;99.90;;;;;;5078695;28;20013;-71
2023/03/15 05:03:01;;;;;;;10.70;2.42;;;4.00;99.90;;;;;;5078410;28;20012;-71
2023/03/15 05:05:28;;;;;;;9.37;2.60;;;3.90;99.90;;;;;;5100587;22;20033;-67
2023/03/15 05:07:53;;;;;;;11.63;2.75;;;3.90;99.90;;;;;;5057419;28;20037;-68
2023/03/15 05:10:19;;;;;;;10.13;2.50;;;3.90;99.90;;;;;;5058368;28;20017;-68
2023/03/15 05:12:45;;;;;;;14.50;3.60;;;3.90;99.90;;;;;;5057806;28;20109;-68
2023/03/15 05:15:11;;;;;;;10.32;3.40;;;3.90;99.90;;;;;;5056276;28;20079;-68
2023/03/15 05:17:36;;;;;;;12.60;2.80;;;3.90;99.90;;;;;;5057489;28;20031;-68
2023/03/15 05:20:09;;;;;;;9.23;3.08;;;3.90;99.90;;;;;;5058393;28;20029;-68
2023/03/15 05:22:35;;;;;;;8.80;2.60;;;3.80;99.90;;;;;;5058344;28;20029;-68
2023/03/15 05:25:00;;;;;;;13.50;3.25;;;3.60;99.90;;;;;;5056978;28;20075;-68
2023/03/15 05:27:27;;;;;;;14.13;3.00;;;3.30;99.90;;;;;;5057079;28;20052;-68
2023/03/15 05:29:52;;;;;;;14.88;3.13;;;3.20;99.90;;;;;;5057262;28;20029;-68
2023/03/15 05:32:18;;;;;;;14.20;2.78;;;3.10;99.90;;;;;;5057017;28;20031;-68
2023/03/15 05:34:43;;;;;;;8.18;2.67;;;3.10;99.90;;;;;;5056932;28;20017;-68
2023/03/15 05:37:11;;;;;;;8.82;2.97;;;3.10;99.90;;;;;;5056743;28;20025;-68
2023/03/15 05:39:36;;;;;;;10.05;2.90;;;3.30;99.90;;;;;;5058338;28;20021;-68
2023/03/15 05:42:02;;;;;;;12.98;3.15;;;3.40;99.90;;;;;;5058218;28;20036;-68
2023/03/15 05:44:28;;;;;;;10.82;3.17;;;3.50;99.90;;;;;;5057054;28;20092;-68
2023/03/15 05:46:53;;;;;;;11.70;3.15;;;3.60;99.90;;;;;;5057199;28;20025;-68
2023/03/15 05:49:19;;;;;;;13.38;4.28;;;3.60;99.90;;;;;;5056670;28;20021;-68
2023/03/15 05:51:44;;;;;;;9.20;3.33;;;3.80;99.90;;;;;;5057824;28;20013;-68
2023/03/15 05:54:10;;;;;;;12.15;2.38;;;3.80;99.90;;;;;;5057442;28;20021;-68
2023/03/15 05:56:35;;;;;;;9.25;3.53;;;3.90;99.90;;;;;;5056522;28;20032;-68
2023/03/15 05:59:03;;;;;;;8.93;2.92;;;3.90;99.90;;;;;;5056632;28;20028;-68
2023/03/15 06:01:28;;;;;;;15.10;2.95;;;3.80;99.90;;;;;;5056391;28;20047;-68
2023/03/15 06:03:54;;;;;;;7.35;2.70;;;3.80;99.90;;;;;;5057270;28;20108;-68
2023/03/15 06:06:19;;;;;;;14.00;3.15;;;3.80;99.90;;;;;;5056268;28;20116;-68
2023/03/15 06:08:45;;;;;;;10.68;2.78;;;3.70;99.90;;;;;;5056182;28;20017;-68
2023/03/15 06:11:10;;;;;;;11.65;3.05;;;3.70;99.90;;;;;;5056334;28;20017;-68
2023/03/15 06:13:36;;;;;;;13.52;3.58;;;3.70;99.90;;;;;;5056569;28;20114;-68
2023/03/15 06:16:01;;;;;;;15.88;3.58;;;3.60;99.90;;;;;;5057249;28;20029;-68
2023/03/15 06:18:27;;;;;;;11.63;2.88;;;3.50;99.90;;;;;;5057137;28;20057;-68
2023/03/15 06:20:52;;;;;;;9.80;3.47;;;3.40;99.90;;;;;;5056957;28;20104;-68
2023/03/15 06:23:18;;;;;;;17.45;3.60;;;3.30;99.90;;;;;;5057276;28;20017;-68
2023/03/15 06:25:44;;;;;;;12.25;3.47;;;3.30;99.90;;;;;;5056234;28;20120;-68
2023/03/15 06:28:10;;;;;;;11.93;4.15;;;3.20;99.90;;;;;;5056440;28;20045;-68
2023/03/15 06:30:37;;;;;;;10.40;4.10;;;3.40;99.90;;;;;;5056896;28;20056;-68
2023/03/15 06:33:03;;;;;;;16.02;3.58;;;3.50;99.90;;;;;;5057132;28;20057;-68
2023/03/15 06:35:28;;;;;;;10.10;3.15;;;3.50;99.90;;;;;;5055947;28;20025;-68
2023/03/15 06:37:54;;;;;;;14.63;3.95;;;3.70;99.90;;;;;;5056389;28;20032;-68
2023/03/15 06:40:19;;;;;;;13.07;3.45;;;3.80;99.90;;;;;;5056822;28;20108;-68
2023/03/15 06:42:45;;;;;;;8.70;3.15;;;3.80;99.90;;;;;;5056403;28;20083;-68
2023/03/15 06:45:10;;;;;;;9.45;3.33;;;4.00;99.90;;;;;;5055654;28;20029;-68
2023/03/15 06:47:37;;;;;;;12.95;3.55;;;4.10;99.90;;;;;;5055679;28;20119;-68
2023/03/15 06:50:03;;;;;;;8.98;3.42;;;4.30;99.90;;;;;;5055874;28;20129;-69
2023/03/15 06:52:28;;;;;;;16.08;3.47;;;4.40;99.90;;;;;;5056349;28;20026;-69
2023/03/15 06:54:54;;;;;;;12.73;4.40;;;4.30;99.90;;;;;;5055748;28;20021;-69
2023/03/15 06:57:19;;;;;;;10.15;3.22;;;4.30;99.90;;;;;;5056789;28;20033;-69
2023/03/15 06:59:45;;;;;;;8.55;3.67;;;4.40;99.90;;;;;;5056514;28;20029;-69
2023/03/15 07:02:19;;;;;;;10.45;3.60;;;4.40;99.90;;;;;;5055700;28;20036;-69
2023/03/15 07:04:45;;;;;;;8.45;2.90;;;4.40;99.90;;;;;;5056459;28;20112;-68
2023/03/15 07:07:12;;;;;;;9.10;3.75;;;4.40;99.90;;;;;;5057177;28;20067;-68
2023/03/15 07:09:38;;;;;;;12.95;3.72;;;4.40;99.90;;;;;;5055984;28;20111;-68
2023/03/15 07:12:04;;;;;;;10.05;3.53;;;4.40;99.90;;;;;;5055986;28;20099;-68
2023/03/15 07:14:29;;;;;;;9.32;3.95;;;4.30;99.90;;;;;;5056684;28;20029;-68
2023/03/15 07:16:55;;;;;;;8.88;3.80;;;4.30;99.90;;;;;;5056943;28;20051;-69
2023/03/15 07:19:21;;;;;;;11.73;3.60;;;4.40;99.90;;;;;;5055442;28;20025;-69
2023/03/15 07:21:46;;;;;;;13.60;3.67;;;4.40;99.90;;;;;;5056027;28;20032;-69
2023/03/15 07:24:12;;;;;;;8.98;3.92;;;4.50;99.90;;;;;;5055485;28;20033;-69
2023/03/15 07:26:37;;;;;;;5.43;3.45;;;4.50;99.90;;;;;;5055362;28;20018;-69
2023/03/15 07:29:03;;;;;;;12.38;3.67;;;4.60;99.90;;;;;;5055513;28;20028;-69
2023/03/15 07:31:28;;;;;;;11.05;3.40;;;4.60;99.90;;;;;;5055512;28;20025;-69
2023/03/15 07:33:54;;;;;;;6.72;3.47;;;4.60;99.90;;;;;;5055458;28;20021;-69
2023/03/15 07:36:21;;;;;;;6.75;4.03;;;4.70;99.90;;;;;;5055367;28;20031;-68
2023/03/15 07:38:46;;;;;;;10.90;3.20;;;4.70;99.90;;;;;;5057035;28;20021;-68
2023/03/15 07:41:12;;;;;;;6.97;3.67;;;4.70;99.90;;;;;;5059209;28;20108;-69
2023/03/15 07:43:37;;;;;;;6.85;3.35;;;4.60;99.90;;;;;;5058932;28;20052;-68
2023/03/15 07:46:03;;;;;;;7.85;3.58;;;4.60;99.90;;;;;;5060012;28;20028;-69
2023/03/15 07:48:30;;;;;;;7.65;3.47;;;4.60;99.90;;;;;;5058899;28;20025;-68
2023/03/15 07:50:56;;;;;;;11.13;3.70;;;4.60;99.90;;;;;;5058869;28;20088;-69
2023/03/15 07:53:21;;;;;;;10.05;4.50;;;4.60;99.90;;;;;;5058887;28;20027;-68
2023/03/15 07:55:47;;;;;;;28.88;8.32;;;4.70;99.90;;;;;;5058794;28;20115;-68
2023/03/15 07:58:13;;;;;;;14.13;4.22;;;4.80;99.90;;;;;;5059923;28;20063;-69
2023/03/15 08:00:39;;;;;;;5.15;3.25;;;4.90;99.90;;;;;;5060094;28;20070;-68
2023/03/15 08:03:06;;;;;;;9.38;4.28;;;4.90;99.90;;;;;;5059048;28;20032;-68
2023/03/15 08:05:32;;;;;;;8.75;3.28;;;4.80;99.90;;;;;;5059370;28;20032;-68
2023/03/15 08:07:58;;;;;;;6.22;3.03;;;4.70;99.90;;;;;;5059758;28;20029;-68
2023/03/15 08:10:24;;;;;;;4.60;2.15;;;4.60;99.90;;;;;;5058528;28;20021;-69
2023/03/15 08:12:50;;;;;;;11.48;4.57;;;4.80;99.90;;;;;;5059481;28;20052;-68
2023/03/15 08:15:16;;;;;;;4.32;1.67;;;4.80;99.90;;;;;;5059859;28;20033;-68
2023/03/15 08:17:41;;;;;;;4.60;2.45;;;4.80;99.90;;;;;;5058515;28;20182;-68
2023/03/15 08:20:27;;;;;;;4.40;2.42;;;4.80;99.90;;;;;;5059545;28;20029;-68
2023/03/15 08:22:53;;;;;;;4.55;2.30;;;4.70;99.90;;;;;;5058875;28;20074;-68
2023/03/15 08:25:22;;;;;;;4.72;1.90;;;4.70;99.90;;;;;;5059223;28;20029;-69
2023/03/15 08:27:48;;;;;;;5.70;2.28;;;4.60;99.90;;;;;;5058236;28;20021;-68
2023/03/15 08:30:14;;;;;;;5.15;2.10;;;4.60;99.90;;;;;;5058470;28;20021;-68
2023/03/15 08:32:42;;;;;;;2.50;1.50;;;4.60;99.90;;;;;;5059013;28;20075;-68
2023/03/15 08:35:11;;;;;;;3.58;2.00;;;4.60;99.90;;;;;;5058341;28;20059;-68
2023/03/15 08:37:37;;;;;;;6.28;2.17;;;4.60;99.90;;;;;;5059125;28;20029;-68
2023/03/15 08:40:10;;;;;;;4.65;1.92;;;4.70;99.90;;;;;;5058223;28;20029;-68
2023/03/15 08:42:36;;;;;;;5.43;2.42;;;4.70;99.90;;;;;;5057973;28;20029;-69
2023/03/15 08:45:04;;;;;;;5.45;2.35;;;4.80;99.90;;;;;;5057973;28;20025;-68
2023/03/15 08:47:29;;;;;;;3.60;2.33;;;4.80;99.90;;;;;;5057616;28;20111;-68
2023/03/15 08:49:55;;;;;;;3.60;1.90;;;5.00;99.90;;;;;;5058136;28;20070;-68
2023/03/15 08:52:21;;;;;;;7.82;4.72;;;5.20;99.90;;;;;;5057967;28;20115;-68
2023/03/15 08:54:47;;;;;;;3.88;2.80;;;5.40;99.90;;;;;;5057661;28;20051;-68
2023/03/15 08:57:13;;;;;;;2.45;1.80;;;5.40;99.90;;;;;;5058858;28;20029;-68
2023/03/15 08:59:39;;;;;;;2.35;1.67;;;5.30;99.90;;;;;;5058746;28;20021;-68
2023/03/15 09:02:05;;;;;;;4.07;2.15;;;5.20;99.90;;;;;;5057587;28;20025;-69
2023/03/15 09:04:31;;;;;;;3.05;1.83;;;5.30;99.90;;;;;;5058230;28;20099;-69
2023/03/15 09:06:57;;;;;;;4.85;1.52;;;5.30;99.90;;;;;;5057265;28;20044;-69
2023/03/15 09:09:22;;;;;;;2.53;1.60;;;5.50;99.90;;;;;;5057508;28;20025;-69
2023/03/15 09:11:48;;;;;;;3.67;1.65;;;5.40;99.90;;;;;;5057336;28;20031;-69
2023/03/15 09:14:14;;;;;;;2.80;1.55;;;5.30;99.90;;;;;;5057646;28;20072;-70
2023/03/15 09:16:40;;;;;;;2.42;1.80;;;5.30;99.90;;;;;;5058302;28;20017;-70
2023/03/15 09:19:05;;;;;;;3.50;1.85;;;5.10;99.90;;;;;;5057656;28;20119;-69
2023/03/15 09:21:31;;;;;;;3.97;2.08;;;5.20;99.90;;;;;;5057548;28;20017;-69
2023/03/15 09:23:56;;;;;;;4.03;1.63;;;5.30;99.90;;;;;;5057078;28;20036;-69
2023/03/15 09:26:22;;;;;;;7.45;2.63;;;5.40;99.90;;;;;;5057287;28;20033;-69
2023/03/15 09:28:48;;;;;;;8.05;3.38;;;5.50;99.90;;;;;;5058142;28;20017;-69
2023/03/15 09:31:13;;;;;;;3.78;2.08;;;5.50;99.90;;;;;;5056996;28;20115;-70
2023/03/15 09:33:39;;;;;;;3.45;1.85;;;5.60;99.90;;;;;;5056992;28;20028;-69
2023/03/15 09:36:05;;;;;;;2.50;1.85;;;5.70;99.90;;;;;;5057385;28;20120;-69
2023/03/15 09:38:30;;;;;;;6.65;1.67;;;5.70;99.90;;;;;;5056758;28;20059;-70
2023/03/15 09:40:58;;;;;;;3.20;1.40;;;5.90;99.90;;;;;;5056811;28;20039;-70
2023/03/15 09:43:52;;;;;;;2.13;1.25;;;6.10;99.90;;;;;;5056741;28;20033;-71
2023/03/15 09:46:27;;;;;;;5.65;1.52;;;6.30;99.90;;;;;;5051891;28;20037;-70
2023/03/15 09:49:15;;;;;;;2.03;1.50;;;6.40;99.90;;;;;;5056805;28;20032;-70
2023/03/15 09:51:56;;;;;;;2.15;1.15;;;6.50;99.90;;;;;;5057558;28;20045;-69
2023/03/15 09:54:39;;;;;;;3.83;1.27;;;6.50;99.90;;;;;;5056775;28;20075;-69
2023/03/15 09:57:13;;;;;;;2.55;1.50;;;6.90;99.90;;;;;;5056792;28;20029;-70
2023/03/15 09:59:44;;;;;;;2.55;1.40;;;7.20;99.90;;;;;;5057578;28;20020;-68
2023/03/15 10:02:13;;;;;;;2.67;1.10;;;7.20;99.90;;;;;;5056685;28;20021;-69
2023/03/15 10:04:42;;;;;;;2.05;1.02;;;7.20;99.90;;;;;;5057495;28;20032;-67
2023/03/15 10:07:14;;;;;;;1.73;0.90;;;7.20;99.90;;;;;;5056477;28;20033;-69
2023/03/15 10:09:39;;;;;;;2.83;1.38;;;7.10;99.90;;;;;;5057725;28;20081;-70
2023/03/15 10:12:09;;;;;;;2.92;1.38;;;7.10;99.90;;;;;;5056371;28;20052;-69
2023/03/15 10:14:51;;;;;;;2.72;1.17;;;7.00;99.90;;;;;;5056318;28;20017;-70
2023/03/15 10:17:44;;;;;;;1.77;1.10;;;7.10;99.90;;;;;;5056353;28;20021;-69
2023/03/15 10:20:20;;;;;;;3.08;1.00;;;7.40;99.90;;;;;;5057466;28;20112;-70
2023/03/15 10:23:18;;;;;;;3.38;1.20;;;7.60;99.90;;;;;;5056322;28;20089;-70
2023/03/15 10:25:45;;;;;;;4.10;1.33;;;7.30;99.90;;;;;;5052956;28;20071;-70
2023/03/15 10:28:30;;;;;;;5.65;1.17;;;7.20;99.90;;;;;;5057183;28;20028;-70
2023/03/15 10:31:00;;;;;;;3.78;1.20;;;7.30;99.90;;;;;;5057306;28;20025;-69
2023/03/15 10:33:32;;;;;;;4.47;1.33;;;7.10;99.90;;;;;;5055981;28;20021;-69
2023/03/15 10:35:59;;;;;;;3.03;1.27;;;7.00;99.90;;;;;;5056748;28;20025;-69
2023/03/15 10:38:25;;;;;;;4.18;1.13;;;6.80;99.90;;;;;;5057116;28;20084;-69
2023/03/15 10:40:54;;;;;;;2.67;1.10;;;6.80;99.90;;;;;;5056730;28;20119;-70
2023/03/15 10:43:21;;;;;;;3.47;1.23;;;6.70;99.90;;;;;;5056592;28;20021;-70
2023/03/15 10:46:08;;;;;;;2.00;1.20;;;6.60;99.90;;;;;;5055870;28;20082;-69
2023/03/15 10:48:39;;;;;;;3.85;2.35;;;6.60;99.90;;;;;;5056680;28;20032;-70
2023/03/15 10:51:19;;;;;;;3.20;1.80;;;6.60;99.90;;;;;;5056742;28;20052;-70
2023/03/15 10:53:54;;;;;;;2.22;1.67;;;6.60;99.90;;;;;;5055703;28;20028;-70
2023/03/15 10:56:30;;;;;;;3.20;1.25;;;6.70;99.90;;;;;;5056607;28;20029;-69
2023/03/15 10:58:57;;;;;;;5.65;1.20;;;6.80;99.90;;;;;;5055780;28;20025;-69
2023/03/15 11:01:33;;;;;;;1.52;1.02;;;7.00;99.90;;;;;;5056819;28;20021;-70
2023/03/15 11:04:07;;;;;;;2.72;1.15;;;7.30;99.90;;;;;;5056783;28;20029;-68
2023/03/15 11:06:47;;;;;;;2.90;1.70;;;7.10;99.90;;;;;;5055977;28;20033;-69
2023/03/15 11:09:16;;;;;;;5.40;1.25;;;7.00;99.90;;;;;;5056730;28;20178;-68
2023/03/15 11:12:02;;;;;;;3.42;1.63;;;7.00;99.90;;;;;;5056870;28;20024;-69
2023/03/15 11:14:33;;;;;;;4.55;1.42;;;7.10;99.90;;;;;;5059531;28;20163;-69
2023/03/15 11:16:59;;;;;;;2.45;1.25;;;7.20;99.90;;;;;;5060585;28;20025;-68
2023/03/15 11:19:28;;;;;;;2.92;1.23;;;7.50;99.90;;;;;;5059479;28;20033;-68
2023/03/15 11:21:56;;;;;;;2.60;1.50;;;7.60;99.90;;;;;;5059546;28;20029;-68
2023/03/15 11:24:27;;;;;;;2.42;1.30;;;7.80;99.90;;;;;;5059539;28;20021;-68
2023/03/15 11:26:56;;;;;;;2.50;1.30;;;8.00;99.90;;;;;;5060238;28;20035;-69
2023/03/15 11:29:30;;;;;;;1.42;0.95;;;8.10;99.90;;;;;;5059372;28;20021;-69
2023/03/15 11:31:57;;;;;;;1.95;1.30;;;8.00;99.90;;;;;;5059293;28;20125;-68
2023/03/15 11:34:54;;;;;;;4.82;2.47;;;7.90;99.90;;;;;;5059289;28;20207;-68
2023/03/15 11:37:42;;;;;;;7.45;1.85;;;7.90;99.90;;;;;;5012294;28;20034;-68
2023/03/15 11:40:15;;;;;;;5.20;1.75;;;8.00;99.90;;;;;;5032151;28;20034;-69
2023/03/15 11:42:56;;;;;;;5.50;1.83;;;8.30;99.90;;;;;;5039201;28;20018;-66
2023/03/15 11:45:55;;;;;;;2.45;1.60;;;8.70;99.90;;;;;;5039967;28;20025;-65
2023/03/15 11:48:46;;;;;;;1.85;1.10;;;9.60;99.90;;;;;;5031831;28;20026;-66
2023/03/15 11:51:12;;;;;;;2.78;1.63;;;9.90;99.90;;;;;;5039024;28;20049;-66
2023/03/15 11:53:44;;;;;;;2.13;1.20;;;10.00;99.90;;;;;;5039112;28;20076;-66
2023/03/15 11:56:42;;;;;;;2.75;1.40;;;10.10;99.90;;;;;;5040162;28;20108;-66
2023/03/15 11:59:14;;;;;;;4.18;2.47;;;10.00;99.90;;;;;;5040560;28;20033;-66
2023/03/15 12:01:57;;;;;;;2.38;1.70;;;10.90;99.90;;;;;;5039860;28;20042;-66
2023/03/15 12:04:31;;;;;;;3.72;1.70;;;11.20;99.90;;;;;;5038874;28;20080;-66
2023/03/15 12:07:03;;;;;;;4.53;1.15;;;10.90;99.90;;;;;;5039730;28;20128;-67
2023/03/15 12:09:31;;;;;;;4.20;1.48;;;11.40;99.90;;;;;;5038768;28;20022;-67
2023/03/15 12:12:23;;;;;;;1.67;1.20;;;11.50;99.90;;;;;;5038727;28;20116;-67
2023/03/15 12:15:13;;;;;;;2.70;1.55;;;11.60;99.90;;;;;;5034157;28;20037;-67
2023/03/15 12:17:48;;;;;;;3.75;1.50;;;11.00;99.90;;;;;;5038769;28;20029;-67
2023/03/15 12:20:36;;;;;;;2.00;1.63;;;10.40;99.90;;;;;;5039458;28;20036;-66
2023/03/15 12:23:17;;;;;;;3.33;1.52;;;10.00;99.90;;;;;;5038524;28;20052;-66
2023/03/15 12:25:57;;;;;;;2.95;1.27;;;9.90;99.90;;;;;;5037914;28;20021;-67
2023/03/15 12:28:29;;;;;;;2.80;1.45;;;9.50;99.90;;;;;;5038953;28;20021;-66
2023/03/15 12:31:01;;;;;;;4.10;1.40;;;9.20;99.90;;;;;;5039814;28;20024;-65
2023/03/15 12:33:27;;;;;;;;;;;9.40;99.90;;;;;;5039843;28;20029;-65
2023/03/15 12:36:06;;;;;;;2.67;1.67;;;9.70;99.90;;;;;;5038604;28;20147;-66
2023/03/15 12:38:40;;;;;;;3.80;1.20;;;9.70;99.90;;;;;;5049813;28;20029;-66
2023/03/15 12:41:27;;;;;;;2.55;1.60;;;9.80;99.90;;;;;;5059262;28;20048;-66
2023/03/15 12:44:24;;;;;;;2.25;1.40;;;10.00;99.90;;;;;;5057921;28;20025;-66
2023/03/15 12:46:49;;;;;;;5.90;2.08;;;10.70;99.90;;;;;;5057899;28;20025;-66
2023/03/15 12:49:37;;;;;;;4.13;1.52;;;11.20;99.90;;;;;;5059019;28;20036;-67
2023/03/15 12:52:05;;;;;;;2.85;1.38;;;11.70;99.90;;;;;;5058326;28;20027;-66
2023/03/15 12:54:45;;;;;;;4.03;1.42;;;11.40;99.90;;;;;;5058337;28;20025;-66
2023/03/15 12:57:12;;;;;;;2.38;1.70;;;10.90;99.90;;;;;;5058650;28;20017;-66
2023/03/15 12:59:59;;;;;;;4.55;1.48;;;10.60;99.90;;;;;;5057804;28;20021;-66
2023/03/15 13:02:35;;;;;;;1.55;1.02;;;10.80;99.90;;;;;;5058015;28;20017;-66